sensor_id;sensor_type;location;lat;lon;timestamp;P1;durP1;ratioP1;P2;durP2;ratioP2
25199;SDS011;33094;48.782;9.162;2023-05-14T00:00:12;20.15;;;16.13;;
25199;SDS011;33094;48.782;9.162;2023-05-14T00:05:24;20.00;;;15.02;;
25199;SDS011;33094;48.782;9.162;2023-05-14T00:10:26;17.05;;;14.38;;
25199;SDS011;33094;48.782;9.162;2023-05-14T00:12:55;19.08;;;14.48;;
25199;SDS011;33094;48.782;9.162;2023-05-14T00:20:33;19.33;;;15.45;;
25199;SDS011;33094;48.782;9.162;2023-05-14T00:23:00;17.10;;;14.50;;
25199;SDS011;33094;48.782;9.162;2023-05-14T07:06:38;15.93;;;12.52;;
25199;SDS011;33094;48.782;9.162;2023-05-14T07:09:09;17.15;;;13.15;;
25199;SDS011;33094;48.782;9.162;2023-05-14T11:39:08;9.20;;;8.05;;
25199;SDS011;33094;48.782;9.162;2023-05-14T11:45:50;10.32;;;8.25;;
25199;SDS011;33094;48.782;9.162;2023-05-14T12:18:52;7.45;;;6.75;;
25199;SDS011;33094;48.782;9.162;2023-05-14T12:25:32;6.70;;;5.88;;
25199;SDS011;33094;48.782;9.162;2023-05-14T12:27:58;6.20;;;5.60;;
25199;SDS011;33094;48.782;9.162;2023-05-14T12:30:23;5.83;;;5.33;;
25199;SDS011;33094;48.782;9.162;2023-05-14T12:32:49;6.37;;;5.77;;
25199;SDS011;33094;48.782;9.162;2023-05-14T12:35:16;7.55;;;4.97;;
25199;SDS011;33094;48.782;9.162;2023-05-14T12:37:42;5.23;;;4.83;;
25199;SDS011;33094;48.782;9.162;2023-05-14T12:40:07;5.50;;;5.00;;
25199;SDS011;33094;48.782;9.162;2023-05-14T12:42:33;4.90;;;4.40;;
25199;SDS011;33094;48.782;9.162;2023-05-14T12:44:59;6.75;;;4.78;;
25199;SDS011;33094;48.782;9.162;2023-05-14T12:47:29;5.65;;;5.15;;
25199;SDS011;33094;48.782;9.162;2023-05-14T12:49:55;5.78;;;5.25;;
25199;SDS011;33094;48.782;9.162;2023-05-14T12:52:21;6.00;;;5.50;;
25199;SDS011;33094;48.782;9.162;2023-05-14T12:54:46;6.57;;;5.60;;
25199;SDS011;33094;48.782;9.162;2023-05-14T12:57:12;5.83;;;5.20;;
25199;SDS011;33094;48.782;9.162;2023-05-14T12:59:38;5.40;;;4.47;;
25199;SDS011;33094;48.782;9.162;2023-05-14T13:02:03;4.97;;;4.47;;
25199;SDS011;33094;48.782;9.162;2023-05-14T13:04:29;6.90;;;4.60;;
25199;SDS011;33094;48.782;9.162;2023-05-14T13:06:54;5.47;;;4.97;;
25199;SDS011;33094;48.782;9.162;2023-05-14T13:09:20;5.10;;;4.60;;
25199;SDS011;33094;48.782;9.162;2023-05-14T13:11:46;5.23;;;4.73;;
25199;SDS011;33094;48.782;9.162;2023-05-14T13:14:11;5.40;;;4.13;;
25199;SDS011;33094;48.782;9.162;2023-05-14T13:16:37;4.97;;;4.27;;
25199;SDS011;33094;48.782;9.162;2023-05-14T13:19:02;4.70;;;4.30;;
25199;SDS011;33094;48.782;9.162;2023-05-14T13:21:28;4.80;;;4.40;;
25199;SDS011;33094;48.782;9.162;2023-05-14T13:23:53;5.50;;;5.00;;
25199;SDS011;33094;48.782;9.162;2023-05-14T13:26:19;6.23;;;5.63;;
25199;SDS011;33094;48.782;9.162;2023-05-14T13:28:45;6.00;;;5.40;;
25199;SDS011;33094;48.782;9.162;2023-05-14T13:31:11;8.27;;;5.47;;
25199;SDS011;33094;48.782;9.162;2023-05-14T13:33:42;5.35;;;4.85;;
25199;SDS011;33094;48.782;9.162;2023-05-14T13:36:09;8.25;;;6.50;;
25199;SDS011;33094;48.782;9.162;2023-05-14T13:38:35;6.95;;;5.85;;
25199;SDS011;33094;48.782;9.162;2023-05-14T13:41:02;6.57;;;5.87;;
25199;SDS011;33094;48.782;9.162;2023-05-14T13:43:28;6.03;;;5.47;;
25199;SDS011;33094;48.782;9.162;2023-05-14T13:48:20;7.53;;;5.80;;
25199;SDS011;33094;48.782;9.162;2023-05-14T13:50:46;5.90;;;5.10;;
25199;SDS011;33094;48.782;9.162;2023-05-14T13:53:11;5.95;;;4.75;;
25199;SDS011;33094;48.782;9.162;2023-05-14T13:55:37;6.10;;;4.70;;
25199;SDS011;33094;48.782;9.162;2023-05-14T13:58:03;5.47;;;4.93;;
25199;SDS011;33094;48.782;9.162;2023-05-14T14:00:28;7.60;;;5.27;;
25199;SDS011;33094;48.782;9.162;2023-05-14T14:02:54;5.87;;;5.37;;
25199;SDS011;33094;48.782;9.162;2023-05-14T14:05:20;6.27;;;5.67;;
25199;SDS011;33094;48.782;9.162;2023-05-14T14:07:46;5.53;;;5.03;;
25199;SDS011;33094;48.782;9.162;2023-05-14T14:10:12;6.60;;;5.30;;
25199;SDS011;33094;48.782;9.162;2023-05-14T14:12:37;7.70;;;5.25;;
25199;SDS011;33094;48.782;9.162;2023-05-14T14:15:04;7.97;;;5.47;;
25199;SDS011;33094;48.782;9.162;2023-05-14T14:17:30;7.85;;;5.50;;
25199;SDS011;33094;48.782;9.162;2023-05-14T14:19:57;8.35;;;4.80;;
25199;SDS011;33094;48.782;9.162;2023-05-14T14:22:23;5.45;;;4.95;;
25199;SDS011;33094;48.782;9.162;2023-05-14T14:24:48;5.83;;;5.30;;
25199;SDS011;33094;48.782;9.162;2023-05-14T14:27:14;5.03;;;4.47;;
25199;SDS011;33094;48.782;9.162;2023-05-14T14:29:40;7.78;;;4.82;;
25199;SDS011;33094;48.782;9.162;2023-05-14T14:32:05;7.40;;;4.43;;
25199;SDS011;33094;48.782;9.162;2023-05-14T14:34:31;6.27;;;3.90;;
25199;SDS011;33094;48.782;9.162;2023-05-14T14:36:57;4.97;;;4.47;;
25199;SDS011;33094;48.782;9.162;2023-05-14T14:39:23;9.60;;;5.07;;
25199;SDS011;33094;48.782;9.162;2023-05-14T14:41:49;5.57;;;4.68;;
25199;SDS011;33094;48.782;9.162;2023-05-14T14:44:16;6.38;;;5.03;;
25199;SDS011;33094;48.782;9.162;2023-05-14T14:46:42;5.18;;;4.68;;
25199;SDS011;33094;48.782;9.162;2023-05-14T14:49:07;5.80;;;5.07;;
25199;SDS011;33094;48.782;9.162;2023-05-14T14:51:33;5.63;;;5.03;;
25199;SDS011;33094;48.782;9.162;2023-05-14T14:53:59;4.70;;;4.25;;
25199;SDS011;33094;48.782;9.162;2023-05-14T14:56:25;4.43;;;4.03;;
25199;SDS011;33094;48.782;9.162;2023-05-14T14:58:51;5.45;;;4.95;;
25199;SDS011;33094;48.782;9.162;2023-05-14T15:01:16;6.60;;;4.70;;
25199;SDS011;33094;48.782;9.162;2023-05-14T15:03:42;9.32;;;6.03;;
25199;SDS011;33094;48.782;9.162;2023-05-14T15:06:09;3.60;;;3.30;;
25199;SDS011;33094;48.782;9.162;2023-05-14T15:08:35;5.70;;;3.75;;
25199;SDS011;33094;48.782;9.162;2023-05-14T15:11:01;6.43;;;4.30;;
25199;SDS011;33094;48.782;9.162;2023-05-14T15:13:27;4.20;;;3.80;;
25199;SDS011;33094;48.782;9.162;2023-05-14T15:15:53;4.50;;;4.10;;
25199;SDS011;33094;48.782;9.162;2023-05-14T15:18:18;4.37;;;3.97;;
25199;SDS011;33094;48.782;9.162;2023-05-14T15:20:44;5.93;;;3.87;;
25199;SDS011;33094;48.782;9.162;2023-05-14T15:23:10;5.60;;;4.37;;
25199;SDS011;33094;48.782;9.162;2023-05-14T15:25:35;5.00;;;4.57;;
25199;SDS011;33094;48.782;9.162;2023-05-14T15:28:01;5.57;;;4.00;;
25199;SDS011;33094;48.782;9.162;2023-05-14T15:30:29;8.27;;;4.30;;
25199;SDS011;33094;48.782;9.162;2023-05-14T15:32:55;5.57;;;4.45;;
25199;SDS011;33094;48.782;9.162;2023-05-14T15:35:20;6.33;;;5.40;;
25199;SDS011;33094;48.782;9.162;2023-05-14T15:37:46;6.70;;;5.23;;
25199;SDS011;33094;48.782;9.162;2023-05-14T15:40:11;7.82;;;6.32;;
25199;SDS011;33094;48.782;9.162;2023-05-14T15:42:38;14.32;;;7.57;;
25199;SDS011;33094;48.782;9.162;2023-05-14T15:45:08;8.93;;;6.75;;
25199;SDS011;33094;48.782;9.162;2023-05-14T15:47:36;8.55;;;6.78;;
25199;SDS011;33094;48.782;9.162;2023-05-14T15:50:02;7.63;;;6.28;;
25199;SDS011;33094;48.782;9.162;2023-05-14T15:52:28;14.17;;;7.73;;
25199;SDS011;33094;48.782;9.162;2023-05-14T15:54:53;7.75;;;6.60;;
25199;SDS011;33094;48.782;9.162;2023-05-14T15:57:21;8.98;;;7.03;;
25199;SDS011;33094;48.782;9.162;2023-05-14T15:59:47;13.60;;;8.38;;
25199;SDS011;33094;48.782;9.162;2023-05-14T16:02:13;10.45;;;8.05;;
25199;SDS011;33094;48.782;9.162;2023-05-14T16:04:39;11.98;;;8.25;;
25199;SDS011;33094;48.782;9.162;2023-05-14T16:07:05;11.05;;;8.73;;
25199;SDS011;33094;48.782;9.162;2023-05-14T16:09:35;8.25;;;7.45;;
25199;SDS011;33094;48.782;9.162;2023-05-14T16:12:01;10.48;;;7.93;;
25199;SDS011;33094;48.782;9.162;2023-05-14T16:14:26;11.98;;;8.18;;
25199;SDS011;33094;48.782;9.162;2023-05-14T16:16:52;10.55;;;8.77;;
25199;SDS011;33094;48.782;9.162;2023-05-14T16:19:18;19.37;;;7.63;;
25199;SDS011;33094;48.782;9.162;2023-05-14T16:21:44;10.27;;;8.00;;
25199;SDS011;33094;48.782;9.162;2023-05-14T16:24:10;11.20;;;8.13;;
25199;SDS011;33094;48.782;9.162;2023-05-14T16:26:39;12.30;;;8.50;;
25199;SDS011;33094;48.782;9.162;2023-05-14T16:29:04;11.40;;;7.03;;
25199;SDS011;33094;48.782;9.162;2023-05-14T16:31:30;7.25;;;6.47;;
25199;SDS011;33094;48.782;9.162;2023-05-14T16:33:56;7.07;;;6.30;;
25199;SDS011;33094;48.782;9.162;2023-05-14T16:36:23;7.07;;;6.15;;
25199;SDS011;33094;48.782;9.162;2023-05-14T16:38:50;7.57;;;5.97;;
25199;SDS011;33094;48.782;9.162;2023-05-14T16:41:16;6.60;;;5.90;;
25199;SDS011;33094;48.782;9.162;2023-05-14T16:43:42;8.82;;;7.35;;
25199;SDS011;33094;48.782;9.162;2023-05-14T16:46:08;7.05;;;6.32;;
25199;SDS011;33094;48.782;9.162;2023-05-14T16:48:34;7.60;;;5.65;;
25199;SDS011;33094;48.782;9.162;2023-05-14T16:51:00;6.10;;;5.50;;
25199;SDS011;33094;48.782;9.162;2023-05-14T16:53:26;8.55;;;6.35;;
25199;SDS011;33094;48.782;9.162;2023-05-14T16:55:51;8.93;;;6.10;;
25199;SDS011;33094;48.782;9.162;2023-05-14T16:58:17;6.53;;;5.87;;
25199;SDS011;33094;48.782;9.162;2023-05-14T17:00:42;7.17;;;5.27;;
25199;SDS011;33094;48.782;9.162;2023-05-14T17:03:08;6.47;;;5.77;;
25199;SDS011;33094;48.782;9.162;2023-05-14T17:05:33;7.32;;;5.95;;
25199;SDS011;33094;48.782;9.162;2023-05-14T17:07:59;7.47;;;4.82;;
25199;SDS011;33094;48.782;9.162;2023-05-14T17:10:25;5.53;;;4.90;;
25199;SDS011;33094;48.782;9.162;2023-05-14T17:12:51;6.35;;;5.75;;
25199;SDS011;33094;48.782;9.162;2023-05-14T17:15:17;8.10;;;7.30;;
25199;SDS011;33094;48.782;9.162;2023-05-14T17:17:43;7.30;;;5.70;;
25199;SDS011;33094;48.782;9.162;2023-05-14T17:20:08;6.63;;;5.95;;
25199;SDS011;33094;48.782;9.162;2023-05-14T17:22:34;10.47;;;5.87;;
25199;SDS011;33094;48.782;9.162;2023-05-14T17:25:00;6.07;;;5.40;;
25199;SDS011;33094;48.782;9.162;2023-05-14T17:27:26;6.20;;;5.60;;
25199;SDS011;33094;48.782;9.162;2023-05-14T17:29:53;8.07;;;6.72;;
25199;SDS011;33094;48.782;9.162;2023-05-14T17:32:19;14.77;;;6.60;;
25199;SDS011;33094;48.782;9.162;2023-05-14T17:34:45;12.02;;;7.22;;
25199;SDS011;33094;48.782;9.162;2023-05-14T17:37:10;9.18;;;7.22;;
25199;SDS011;33094;48.782;9.162;2023-05-14T17:39:36;13.95;;;7.68;;
25199;SDS011;33094;48.782;9.162;2023-05-14T17:42:01;9.30;;;7.40;;
25199;SDS011;33094;48.782;9.162;2023-05-14T17:44:27;7.88;;;7.07;;
25199;SDS011;33094;48.782;9.162;2023-05-14T17:46:54;8.13;;;7.07;;
25199;SDS011;33094;48.782;9.162;2023-05-14T17:49:20;6.82;;;6.13;;
25199;SDS011;33094;48.782;9.162;2023-05-14T17:51:45;10.85;;;6.68;;
25199;SDS011;33094;48.782;9.162;2023-05-14T17:54:11;6.63;;;5.63;;
25199;SDS011;33094;48.782;9.162;2023-05-14T17:56:36;6.40;;;5.72;;
25199;SDS011;33094;48.782;9.162;2023-05-14T17:59:02;6.95;;;5.75;;
25199;SDS011;33094;48.782;9.162;2023-05-14T18:01:28;9.05;;;5.55;;
25199;SDS011;33094;48.782;9.162;2023-05-14T18:03:53;6.65;;;5.95;;
25199;SDS011;33094;48.782;9.162;2023-05-14T18:06:19;9.85;;;5.80;;
25199;SDS011;33094;48.782;9.162;2023-05-14T18:08:44;7.85;;;5.82;;
25199;SDS011;33094;48.782;9.162;2023-05-14T18:11:10;9.23;;;6.07;;
25199;SDS011;33094;48.782;9.162;2023-05-14T18:13:36;11.07;;;6.25;;
25199;SDS011;33094;48.782;9.162;2023-05-14T18:16:01;8.25;;;6.72;;
25199;SDS011;33094;48.782;9.162;2023-05-14T18:18:27;10.43;;;6.45;;
25199;SDS011;33094;48.782;9.162;2023-05-14T18:20:53;8.77;;;6.30;;
25199;SDS011;33094;48.782;9.162;2023-05-14T18:23:19;15.07;;;6.85;;
25199;SDS011;33094;48.782;9.162;2023-05-14T18:25:44;6.97;;;5.97;;
25199;SDS011;33094;48.782;9.162;2023-05-14T18:28:10;7.80;;;5.57;;
25199;SDS011;33094;48.782;9.162;2023-05-14T18:30:36;8.50;;;6.20;;
25199;SDS011;33094;48.782;9.162;2023-05-14T18:33:02;9.93;;;6.25;;
25199;SDS011;33094;48.782;9.162;2023-05-14T18:35:27;10.48;;;6.60;;
25199;SDS011;33094;48.782;9.162;2023-05-14T18:37:53;7.57;;;5.80;;
25199;SDS011;33094;48.782;9.162;2023-05-14T18:40:19;8.05;;;6.10;;
25199;SDS011;33094;48.782;9.162;2023-05-14T18:42:44;13.30;;;6.20;;
25199;SDS011;33094;48.782;9.162;2023-05-14T18:45:10;12.13;;;6.47;;
25199;SDS011;33094;48.782;9.162;2023-05-14T18:47:36;9.13;;;6.97;;
25199;SDS011;33094;48.782;9.162;2023-05-14T18:50:03;8.65;;;6.20;;
25199;SDS011;33094;48.782;9.162;2023-05-14T18:52:33;8.68;;;6.85;;
25199;SDS011;33094;48.782;9.162;2023-05-14T18:54:58;9.05;;;5.60;;
25199;SDS011;33094;48.782;9.162;2023-05-14T18:57:25;15.30;;;7.97;;
25199;SDS011;33094;48.782;9.162;2023-05-14T18:59:53;29.30;;;12.52;;
25199;SDS011;33094;48.782;9.162;2023-05-14T19:02:19;22.58;;;10.93;;
25199;SDS011;33094;48.782;9.162;2023-05-14T19:04:45;16.05;;;9.77;;
25199;SDS011;33094;48.782;9.162;2023-05-14T19:07:10;12.35;;;8.07;;
25199;SDS011;33094;48.782;9.162;2023-05-14T19:09:37;10.02;;;6.88;;
25199;SDS011;33094;48.782;9.162;2023-05-14T19:12:30;10.23;;;6.60;;
25199;SDS011;33094;48.782;9.162;2023-05-14T19:14:57;10.10;;;6.15;;
25199;SDS011;33094;48.782;9.162;2023-05-14T19:22:44;8.73;;;7.30;;
25199;SDS011;33094;48.782;9.162;2023-05-14T19:27:46;8.57;;;7.22;;
25199;SDS011;33094;48.782;9.162;2023-05-14T19:30:15;8.80;;;7.28;;
25199;SDS011;33094;48.782;9.162;2023-05-14T19:32:50;13.38;;;7.45;;
25199;SDS011;33094;48.782;9.162;2023-05-14T19:35:17;11.48;;;7.85;;
25199;SDS011;33094;48.782;9.162;2023-05-14T19:37:45;8.80;;;7.00;;
25199;SDS011;33094;48.782;9.162;2023-05-14T19:40:11;9.30;;;7.07;;
25199;SDS011;33094;48.782;9.162;2023-05-14T19:50:24;10.23;;;7.32;;
25199;SDS011;33094;48.782;9.162;2023-05-14T20:05:51;10.18;;;7.68;;
25199;SDS011;33094;48.782;9.162;2023-05-14T20:10:55;11.30;;;7.57;;
25199;SDS011;33094;48.782;9.162;2023-05-14T20:13:23;12.80;;;7.60;;
25199;SDS011;33094;48.782;9.162;2023-05-14T20:15:55;11.68;;;8.25;;
